createdAt,value
2018-06-15T00:00:54.032Z,9.00
2018-06-15T00:03:22.917Z,9.50
2018-06-15T00:05:51.165Z,5.73
2018-06-15T00:08:19.388Z,9.80
2018-06-15T00:10:48.235Z,8.60
2018-06-15T00:13:16.947Z,5.53
2018-06-15T00:15:45.177Z,5.30
2018-06-15T00:18:14.729Z,6.53
2018-06-15T00:20:43.092Z,5.30
2018-06-15T00:23:11.977Z,4.80
2018-06-15T00:25:40.897Z,4.50
2018-06-15T00:28:10.259Z,4.30
2018-06-15T00:30:38.957Z,6.17
2018-06-15T00:33:07.619Z,5.40
2018-06-15T00:35:36.496Z,10.50
2018-06-15T00:38:04.771Z,5.17
2018-06-15T00:40:33.209Z,4.83
2018-06-15T00:43:01.779Z,4.37
2018-06-15T00:45:30.034Z,4.30
2018-06-15T00:47:58.235Z,4.33
2018-06-15T00:50:26.496Z,4.40
2018-06-15T00:52:54.707Z,5.23
2018-06-15T00:55:23.286Z,6.07
2018-06-15T00:57:51.467Z,6.70
2018-06-15T01:00:19.686Z,5.83
2018-06-15T01:02:48.052Z,7.80
2018-06-15T01:05:16.290Z,8.23
2018-06-15T01:07:44.594Z,8.43
2018-06-15T01:10:12.919Z,9.50
2018-06-15T01:12:41.139Z,8.50
2018-06-15T01:15:09.443Z,9.23
2018-06-15T01:17:38.085Z,9.80
2018-06-15T01:20:06.321Z,9.90
2018-06-15T01:22:34.499Z,8.93
2018-06-15T01:25:03.057Z,10.03
2018-06-15T01:27:31.300Z,9.77
2018-06-15T01:29:59.750Z,9.80
2018-06-15T01:32:27.951Z,9.10
2018-06-15T01:34:56.211Z,11.30
2018-06-15T01:37:24.566Z,10.00
2018-06-15T01:39:52.798Z,10.20
2018-06-15T01:42:20.980Z,9.90
2018-06-15T01:44:49.260Z,9.73
2018-06-15T01:47:17.541Z,9.30
2018-06-15T01:49:45.784Z,9.80
2018-06-15T01:52:13.979Z,9.60
2018-06-15T01:54:42.178Z,10.07
2018-06-15T01:57:10.419Z,9.20
2018-06-15T01:59:38.624Z,9.30
2018-06-15T02:02:06.806Z,8.87
2018-06-15T02:04:35.036Z,8.60
2018-06-15T02:07:03.340Z,7.83
2018-06-15T02:09:31.553Z,8.90
2018-06-15T02:11:59.764Z,8.90
2018-06-15T02:14:27.960Z,8.80
2018-06-15T02:16:56.205Z,8.33
2018-06-15T02:19:24.459Z,9.80
2018-06-15T02:21:52.863Z,9.43
2018-06-15T02:24:21.367Z,8.47
2018-06-15T02:26:49.595Z,8.57
2018-06-15T02:29:17.850Z,9.47
2018-06-15T02:31:46.085Z,9.10
2018-06-15T02:34:14.295Z,8.20
2018-06-15T02:36:42.498Z,10.13
2018-06-15T02:39:11.839Z,9.47
2018-06-15T02:41:40.402Z,9.73
2018-06-15T02:44:08.652Z,8.07
2018-06-15T02:46:36.838Z,9.43
2018-06-15T02:49:05.540Z,10.90
2018-06-15T02:51:33.889Z,10.80
2018-06-15T02:54:02.258Z,11.10
2018-06-15T02:56:30.566Z,10.97
2018-06-15T02:58:58.861Z,9.83
2018-06-15T03:01:27.613Z,11.40
2018-06-15T03:03:56.105Z,11.60
2018-06-15T03:06:24.666Z,12.00
2018-06-15T03:08:52.938Z,11.47
2018-06-15T03:11:21.188Z,10.97
2018-06-15T03:13:49.456Z,10.97
2018-06-15T03:16:17.649Z,11.50
2018-06-15T03:18:45.885Z,11.80
2018-06-15T03:21:14.181Z,11.53
2018-06-15T03:36:47.347Z,11.30
2018-06-15T03:39:15.526Z,11.37
2018-06-15T03:41:43.760Z,12.53
2018-06-15T03:44:12.066Z,12.97
2018-06-15T03:46:40.286Z,13.17
2018-06-15T03:49:08.527Z,11.37
2018-06-15T03:51:36.763Z,13.03
2018-06-15T03:54:05.147Z,12.57
2018-06-15T03:56:33.387Z,12.30
2018-06-15T03:59:01.649Z,12.80
2018-06-15T04:01:29.890Z,15.00
2018-06-15T04:03:58.108Z,13.57
2018-06-15T04:06:26.316Z,12.50
2018-06-15T04:08:54.576Z,13.10
2018-06-15T04:11:22.813Z,14.00
2018-06-15T04:13:51.073Z,12.90
2018-06-15T04:16:19.316Z,12.30
2018-06-15T04:18:47.527Z,11.90
2018-06-15T04:21:15.743Z,12.00
2018-06-15T04:23:43.956Z,12.13
2018-06-15T04:26:12.221Z,12.00
2018-06-15T04:28:40.484Z,11.97
2018-06-15T04:31:09.365Z,11.30
2018-06-15T04:33:37.595Z,10.90
2018-06-15T04:36:05.940Z,11.90
2018-06-15T04:38:34.218Z,12.50
2018-06-15T04:41:02.442Z,11.20
2018-06-15T04:43:31.114Z,11.77
2018-06-15T04:45:59.329Z,10.43
2018-06-15T04:48:27.568Z,11.50
2018-06-15T04:50:55.792Z,11.50
2018-06-15T04:53:23.973Z,12.40
2018-06-15T04:55:52.171Z,10.80
2018-06-15T04:58:20.440Z,12.20
2018-06-15T05:00:48.985Z,13.07
2018-06-15T05:03:17.222Z,12.40
2018-06-15T05:05:46.040Z,13.27
2018-06-15T05:08:14.253Z,11.70
2018-06-15T05:10:42.521Z,12.00
2018-06-15T05:13:11.162Z,11.97
2018-06-15T05:15:39.370Z,11.67
2018-06-15T05:18:07.558Z,12.13
2018-06-15T05:20:35.970Z,11.90
2018-06-15T05:23:10.784Z,11.73
2018-06-15T05:25:39.015Z,11.33
2018-06-15T05:28:07.235Z,11.23
2018-06-15T05:30:35.450Z,11.93
2018-06-15T05:33:03.672Z,11.27
2018-06-15T05:35:32.037Z,11.73
2018-06-15T05:38:00.331Z,12.37
2018-06-15T05:40:28.565Z,11.93
2018-06-15T05:42:56.761Z,11.23
2018-06-15T05:45:25.035Z,11.07
2018-06-15T05:47:53.245Z,11.97
2018-06-15T05:50:21.492Z,12.40
2018-06-15T05:52:49.758Z,15.77
2018-06-15T05:55:18.014Z,12.43
2018-06-15T05:57:46.259Z,12.40
2018-06-15T06:00:14.551Z,13.13
2018-06-15T06:02:42.795Z,12.30
2018-06-15T06:05:11.066Z,12.10
2018-06-15T06:07:39.350Z,12.03
2018-06-15T06:10:07.645Z,12.83
2018-06-15T06:12:35.867Z,12.87
2018-06-15T06:15:04.116Z,14.00
2018-06-15T06:17:32.452Z,13.90
2018-06-15T06:20:00.778Z,13.80
2018-06-15T06:22:32.154Z,12.87
2018-06-15T06:25:00.416Z,12.63
2018-06-15T06:27:28.641Z,12.30
2018-06-15T06:29:56.870Z,13.03
2018-06-15T06:32:25.199Z,12.67
2018-06-15T06:34:53.456Z,12.80
2018-06-15T06:37:21.673Z,11.70
2018-06-15T06:39:49.917Z,12.13
2018-06-15T06:42:18.280Z,12.90
2018-06-15T06:44:46.525Z,12.13
2018-06-15T06:47:14.809Z,12.87
2018-06-15T06:49:42.997Z,12.30
2018-06-15T06:52:11.275Z,12.80
2018-06-15T06:54:39.541Z,13.30
2018-06-15T06:57:08.013Z,11.93
2018-06-15T06:59:36.263Z,12.43
2018-06-15T07:02:04.524Z,12.80
2018-06-15T07:04:32.797Z,11.70
2018-06-15T07:07:01.057Z,11.30
2018-06-15T07:09:29.276Z,12.20
2018-06-15T07:11:57.481Z,11.97
2018-06-15T07:14:25.751Z,12.20
2018-06-15T07:16:54.214Z,11.90
2018-06-15T07:19:22.594Z,11.70
2018-06-15T07:21:50.809Z,12.20
2018-06-15T07:24:19.069Z,11.20
2018-06-15T07:26:47.298Z,12.83
2018-06-15T07:29:15.522Z,11.60
2018-06-15T07:31:43.774Z,11.40
2018-06-15T07:34:11.964Z,10.13
2018-06-15T07:36:40.338Z,12.30
2018-06-15T07:39:09.893Z,12.80
2018-06-15T07:41:38.096Z,12.20
2018-06-15T07:44:06.310Z,11.30
2018-06-15T07:46:34.543Z,10.73
2018-06-15T07:49:02.854Z,9.90
2018-06-15T07:51:31.061Z,10.60
2018-06-15T07:53:59.248Z,11.47
2018-06-15T07:56:27.525Z,9.30
2018-06-15T07:58:55.797Z,10.70
2018-06-15T08:01:24.042Z,11.23
2018-06-15T08:04:02.455Z,11.57
2018-06-15T08:06:37.544Z,10.00
2018-06-15T08:09:07.807Z,10.03
2018-06-15T08:11:36.597Z,9.50
2018-06-15T08:14:04.904Z,10.17
2018-06-15T08:16:33.526Z,9.90
2018-06-15T08:19:01.773Z,10.70
2018-06-15T08:21:30.163Z,9.23
2018-06-15T08:23:58.501Z,8.30
2018-06-15T08:26:26.717Z,8.00
2018-06-15T08:28:54.960Z,9.27
2018-06-15T08:31:23.139Z,8.93
2018-06-15T08:33:51.374Z,9.27
2018-06-15T08:36:19.701Z,10.20
2018-06-15T08:38:48.053Z,8.27
2018-06-15T08:41:16.221Z,10.50
2018-06-15T08:43:44.868Z,10.33
2018-06-15T08:46:13.110Z,9.50
2018-06-15T08:48:41.320Z,11.23
2018-06-15T08:51:09.538Z,10.00
2018-06-15T08:53:37.801Z,9.00
2018-06-15T08:56:06.056Z,8.83
2018-06-15T08:58:34.369Z,8.83
2018-06-15T09:01:02.605Z,8.63
2018-06-15T09:03:30.816Z,8.23
2018-06-15T09:05:59.017Z,8.40
2018-06-15T09:08:27.192Z,8.80
2018-06-15T09:10:55.428Z,9.97
2018-06-15T09:13:23.687Z,8.97
2018-06-15T09:15:51.915Z,11.10
2018-06-15T09:18:20.149Z,9.50
2018-06-15T09:20:48.376Z,9.07
2018-06-15T09:23:16.602Z,10.37
2018-06-15T09:25:44.832Z,10.90
2018-06-15T09:28:13.023Z,9.53
2018-06-15T09:30:41.212Z,8.50
2018-06-15T09:33:09.443Z,9.00
2018-06-15T09:35:37.701Z,9.47
2018-06-15T09:38:06.109Z,9.57
2018-06-15T09:40:34.325Z,9.40
2018-06-15T09:43:02.868Z,9.33
2018-06-15T09:45:31.090Z,9.53
2018-06-15T09:47:59.353Z,11.20
2018-06-15T09:50:27.573Z,11.60
2018-06-15T09:52:55.944Z,9.40
2018-06-15T09:55:24.152Z,8.30
2018-06-15T09:57:52.682Z,10.03
2018-06-15T10:00:26.235Z,8.80
2018-06-15T10:02:54.476Z,9.80
2018-06-15T10:05:22.935Z,9.10
2018-06-15T10:07:57.920Z,8.90
2018-06-15T10:10:26.129Z,11.93
2018-06-15T10:12:54.328Z,9.50
2018-06-15T10:15:22.588Z,9.90
2018-06-15T10:17:50.779Z,10.40
2018-06-15T10:20:19.100Z,10.83
2018-06-15T10:22:47.434Z,8.70
2018-06-15T10:25:15.650Z,8.73
2018-06-15T10:27:43.895Z,9.10
2018-06-15T10:30:12.150Z,9.40
2018-06-15T10:32:40.399Z,9.50
2018-06-15T10:35:08.590Z,9.80
2018-06-15T10:37:36.872Z,8.77
2018-06-15T10:40:05.133Z,8.23
2018-06-15T10:42:33.334Z,7.40
2018-06-15T10:45:01.594Z,8.40
2018-06-15T10:47:29.786Z,8.07
2018-06-15T10:49:57.967Z,7.83
2018-06-15T10:52:26.153Z,8.97
2018-06-15T10:54:54.736Z,8.60
2018-06-15T10:57:23.051Z,10.47
2018-06-15T10:59:51.322Z,7.60
2018-06-15T11:02:19.581Z,7.30
2018-06-15T11:04:47.680Z,7.67
2018-06-15T11:07:15.957Z,7.10
2018-06-15T11:09:44.171Z,6.40
2018-06-15T11:12:12.385Z,6.93
2018-06-15T11:14:40.598Z,6.50
2018-06-15T11:17:08.788Z,6.17
2018-06-15T11:19:37.001Z,6.00
2018-06-15T11:22:05.224Z,6.33
2018-06-15T11:24:33.508Z,5.70
2018-06-15T11:27:01.677Z,5.40
2018-06-15T11:29:29.885Z,4.80
2018-06-15T11:31:58.117Z,4.23
2018-06-15T11:34:26.372Z,4.33
2018-06-15T11:36:54.627Z,4.90
2018-06-15T11:39:22.841Z,4.13
2018-06-15T11:41:51.049Z,3.63
2018-06-15T11:44:19.296Z,4.40
2018-06-15T11:46:47.564Z,3.63
2018-06-15T11:49:15.902Z,3.80
2018-06-15T11:51:44.109Z,3.50
2018-06-15T11:54:12.312Z,3.77
2018-06-15T11:56:40.522Z,5.07
2018-06-15T11:59:08.758Z,3.10
2018-06-15T12:01:37.027Z,3.83
2018-06-15T12:04:05.179Z,3.97
2018-06-15T12:06:33.474Z,7.53
2018-06-15T12:09:01.765Z,5.50
2018-06-15T12:11:30.042Z,3.97
2018-06-15T12:13:58.290Z,3.70
2018-06-15T12:16:26.566Z,4.73
2018-06-15T12:18:54.866Z,3.70
2018-06-15T12:21:23.108Z,8.10
2018-06-15T12:23:51.273Z,6.30
2018-06-15T12:26:19.493Z,4.57
2018-06-15T12:28:47.761Z,4.57
2018-06-15T12:31:15.979Z,7.60
2018-06-15T12:33:44.209Z,4.30
2018-06-15T12:36:12.443Z,4.50
2018-06-15T12:38:40.688Z,7.83
2018-06-15T12:41:08.879Z,4.30
2018-06-15T12:43:38.192Z,7.47
2018-06-15T12:46:06.707Z,5.80
2018-06-15T12:48:34.957Z,4.50
2018-06-15T12:51:03.183Z,4.87
2018-06-15T12:53:31.455Z,3.80
2018-06-15T12:55:59.685Z,4.33
2018-06-15T12:58:27.909Z,3.70
2018-06-15T13:00:56.110Z,4.47
2018-06-15T13:03:24.281Z,4.17
2018-06-15T13:05:52.492Z,4.37
2018-06-15T13:08:20.896Z,5.70
2018-06-15T13:10:49.056Z,3.90
2018-06-15T13:13:17.321Z,4.10
2018-06-15T13:15:45.728Z,6.10
2018-06-15T13:18:13.950Z,6.00
2018-06-15T13:20:42.368Z,4.10
2018-06-15T13:23:10.609Z,3.80
2018-06-15T13:25:38.789Z,5.20
2018-06-15T13:28:07.009Z,6.57
2018-06-15T13:30:35.206Z,4.37
2018-06-15T13:33:03.428Z,4.43
2018-06-15T13:35:31.659Z,4.23
2018-06-15T13:37:59.885Z,5.33
2018-06-15T13:40:28.095Z,5.17
2018-06-15T13:42:56.265Z,4.93
2018-06-15T13:45:24.625Z,4.83
2018-06-15T13:47:52.875Z,5.40
2018-06-15T13:50:21.416Z,6.07
2018-06-15T13:52:49.670Z,4.40
2018-06-15T13:55:17.904Z,4.30
2018-06-15T13:57:52.525Z,4.13
2018-06-15T14:00:20.805Z,6.60
2018-06-15T14:02:49.012Z,4.50
2018-06-15T14:05:17.694Z,7.30
2018-06-15T14:07:45.917Z,6.93
2018-06-15T14:10:14.202Z,3.30
2018-06-15T14:12:42.472Z,4.33
2018-06-15T14:15:10.684Z,3.93
2018-06-15T14:17:38.984Z,4.90
2018-06-15T14:20:07.224Z,5.07
2018-06-15T14:22:35.421Z,5.00
2018-06-15T14:25:06.786Z,5.00
2018-06-15T14:27:35.029Z,5.10
2018-06-15T14:30:03.289Z,4.80
2018-06-15T14:32:31.472Z,4.70
2018-06-15T14:34:59.726Z,4.90
2018-06-15T14:37:28.804Z,5.80
2018-06-15T14:39:57.266Z,5.03
2018-06-15T14:42:25.572Z,4.43
2018-06-15T14:44:53.832Z,5.97
2018-06-15T14:47:22.347Z,4.50
2018-06-15T14:49:50.564Z,4.07
2018-06-15T14:52:18.811Z,4.23
2018-06-15T14:54:46.999Z,4.90
2018-06-15T14:57:15.323Z,4.43
2018-06-15T14:59:43.526Z,5.20
2018-06-15T15:02:11.856Z,4.63
2018-06-15T15:04:40.077Z,4.20
2018-06-15T15:07:08.548Z,4.10
2018-06-15T15:09:36.797Z,5.80
2018-06-15T15:12:05.024Z,4.00
2018-06-15T15:14:33.218Z,5.83
2018-06-15T15:17:01.451Z,4.63
2018-06-15T15:19:29.677Z,4.00
2018-06-15T15:21:57.974Z,4.47
2018-06-15T15:24:26.182Z,4.20
2018-06-15T15:26:54.401Z,3.67
2018-06-15T15:29:22.763Z,4.03
2018-06-15T15:31:51.032Z,3.67
2018-06-15T15:34:19.263Z,4.23
2018-06-15T15:36:47.488Z,5.90
2018-06-15T15:39:15.672Z,4.67
2018-06-15T15:41:43.921Z,4.47
2018-06-15T15:44:12.092Z,4.27
2018-06-15T15:46:40.342Z,7.93
2018-06-15T15:49:08.542Z,19.40
2018-06-15T15:51:36.718Z,4.63
2018-06-15T15:54:04.982Z,4.17
2018-06-15T15:56:33.222Z,4.00
2018-06-15T15:59:01.413Z,3.80
2018-06-15T16:01:29.684Z,4.43
2018-06-15T16:03:57.895Z,4.40
2018-06-15T16:06:26.136Z,5.77
2018-06-15T16:08:54.317Z,4.13
2018-06-15T16:11:22.530Z,4.40
2018-06-15T16:13:50.736Z,4.70
2018-06-15T16:16:18.960Z,4.83
2018-06-15T16:18:47.206Z,4.20
2018-06-15T16:21:15.479Z,3.70
2018-06-15T16:23:43.643Z,4.90
2018-06-15T16:26:11.890Z,6.43
2018-06-15T16:28:40.148Z,4.57
2018-06-15T16:31:08.379Z,4.30
2018-06-15T16:33:37.120Z,5.23
2018-06-15T16:36:05.480Z,4.10
2018-06-15T16:38:33.668Z,4.50
2018-06-15T16:41:01.969Z,4.20
2018-06-15T16:43:30.221Z,4.80
2018-06-15T16:45:58.760Z,4.40
2018-06-15T16:48:27.104Z,5.10
2018-06-15T16:50:55.337Z,5.67
2018-06-15T16:53:23.528Z,5.70
2018-06-15T16:55:51.737Z,4.73
2018-06-15T16:58:19.939Z,16.27
2018-06-15T17:00:48.169Z,4.20
2018-06-15T17:03:16.445Z,4.10
2018-06-15T17:05:44.681Z,3.60
2018-06-15T17:08:12.995Z,7.17
2018-06-15T17:10:41.249Z,5.47
2018-06-15T17:13:09.478Z,5.80
2018-06-15T17:15:37.704Z,4.70
2018-06-15T17:18:06.234Z,4.37
2018-06-15T17:20:34.446Z,3.93
2018-06-15T17:23:02.841Z,4.87
2018-06-15T17:25:32.049Z,6.00
2018-06-15T17:28:00.504Z,6.63
2018-06-15T17:30:28.829Z,5.80
2018-06-15T17:32:57.084Z,5.67
2018-06-15T17:35:25.329Z,4.50
2018-06-15T17:37:53.618Z,3.83
2018-06-15T17:40:21.817Z,3.97
2018-06-15T17:42:50.133Z,5.83
2018-06-15T17:45:18.492Z,5.20
2018-06-15T17:47:46.686Z,12.23
2018-06-15T17:50:14.905Z,18.83
2018-06-15T17:52:43.124Z,5.43
2018-06-15T17:55:11.309Z,5.23
2018-06-15T17:57:39.848Z,5.10
2018-06-15T18:00:08.129Z,7.10
2018-06-15T18:02:36.776Z,4.53
2018-06-15T18:05:05.162Z,5.40
2018-06-15T18:07:33.812Z,8.63
2018-06-15T18:10:02.024Z,4.10
2018-06-15T18:12:30.196Z,4.40
2018-06-15T18:14:58.488Z,13.00
2018-06-15T18:17:26.757Z,4.47
2018-06-15T18:19:54.962Z,5.73
2018-06-15T18:22:23.250Z,8.20
2018-06-15T18:24:51.435Z,16.77
2018-06-15T18:27:26.287Z,12.60
2018-06-15T18:29:54.493Z,21.33
2018-06-15T18:32:22.759Z,11.20
2018-06-15T18:34:50.989Z,9.20
2018-06-15T18:37:19.246Z,16.40
2018-06-15T18:39:47.456Z,23.00
2018-06-15T18:42:15.630Z,21.70
2018-06-15T18:44:43.857Z,25.30
2018-06-15T18:47:12.187Z,18.77
2018-06-15T18:49:40.427Z,35.03
2018-06-15T18:52:08.754Z,14.80
2018-06-15T18:54:37.158Z,12.00
2018-06-15T18:57:04.465Z,10.30
2018-06-15T18:59:32.735Z,18.27
2018-06-15T19:02:00.937Z,14.30
2018-06-15T19:04:29.130Z,17.60
2018-06-15T19:06:57.321Z,30.60
2018-06-15T19:09:25.480Z,26.20
2018-06-15T19:11:53.684Z,12.87
2018-06-15T19:14:22.008Z,12.53
2018-06-15T19:16:50.312Z,16.90
2018-06-15T19:19:18.562Z,14.87
2018-06-15T19:21:47.074Z,21.20
2018-06-15T19:24:15.322Z,35.30
2018-06-15T19:26:43.689Z,19.80
2018-06-15T19:29:11.948Z,12.13
2018-06-15T19:31:40.177Z,16.00
2018-06-15T19:34:08.371Z,19.77
2018-06-15T19:36:36.585Z,20.77
2018-06-15T19:39:07.164Z,12.27
2018-06-15T19:41:35.705Z,25.47
2018-06-15T19:44:03.936Z,25.00
2018-06-15T19:46:32.289Z,16.80
2018-06-15T19:49:00.611Z,27.40
2018-06-15T19:51:29.123Z,6.00
2018-06-15T19:53:57.349Z,7.17
2018-06-15T19:56:25.537Z,16.07
2018-06-15T19:58:53.792Z,11.00
2018-06-15T20:01:22.133Z,10.23
2018-06-15T20:03:50.367Z,24.90
2018-06-15T20:06:18.952Z,40.57
2018-06-15T20:08:47.163Z,6.97
2018-06-15T20:11:15.465Z,11.93
2018-06-15T20:13:43.667Z,9.40
2018-06-15T20:16:11.853Z,9.77
2018-06-15T20:18:40.427Z,17.57
2018-06-15T20:21:09.056Z,10.47
2018-06-15T20:23:37.303Z,13.63
2018-06-15T20:26:05.914Z,9.97
2018-06-15T20:28:34.151Z,6.30
2018-06-15T20:31:02.460Z,6.30
2018-06-15T20:33:30.653Z,6.40
2018-06-15T20:35:58.849Z,7.03
2018-06-15T20:38:27.097Z,9.47
2018-06-15T20:40:55.348Z,6.20
2018-06-15T20:43:23.563Z,17.60
2018-06-15T20:45:51.719Z,31.60
2018-06-15T20:48:19.948Z,16.37
2018-06-15T20:50:48.082Z,8.67
2018-06-15T20:53:16.297Z,20.23
2018-06-15T20:55:44.541Z,14.73
2018-06-15T20:58:12.890Z,6.50
2018-06-15T21:00:41.107Z,10.07
2018-06-15T21:03:09.365Z,12.00
2018-06-15T21:05:37.644Z,12.13
2018-06-15T21:08:06.180Z,17.70
2018-06-15T21:10:34.625Z,9.40
2018-06-15T21:13:02.882Z,12.43
2018-06-15T21:15:31.128Z,17.77
2018-06-15T21:17:59.512Z,23.37
2018-06-15T21:20:27.785Z,13.67
2018-06-15T21:22:55.983Z,15.87
2018-06-15T21:25:24.225Z,34.20
2018-06-15T21:27:52.465Z,10.53
2018-06-15T21:30:20.744Z,11.83
2018-06-15T21:32:49.348Z,10.67
2018-06-15T21:35:17.555Z,7.07
2018-06-15T21:37:45.807Z,12.13
2018-06-15T21:40:13.958Z,9.63
2018-06-15T21:42:42.203Z,7.30
2018-06-15T21:45:10.445Z,22.07
2018-06-15T21:47:38.651Z,26.67
2018-06-15T21:50:07.022Z,15.40
2018-06-15T21:52:35.299Z,22.97
2018-06-15T21:55:03.547Z,18.87
2018-06-15T21:57:31.757Z,15.97
2018-06-15T22:00:00.379Z,24.33
2018-06-15T22:02:28.936Z,17.23
2018-06-15T22:04:57.292Z,27.63
2018-06-15T22:07:25.469Z,25.03
2018-06-15T22:09:53.890Z,11.47
2018-06-15T22:12:22.123Z,10.47
2018-06-15T22:14:50.424Z,16.27
2018-06-15T22:17:18.607Z,8.87
2018-06-15T22:19:46.877Z,10.70
2018-06-15T22:22:15.167Z,14.00
2018-06-15T22:24:43.430Z,13.83
2018-06-15T22:27:11.659Z,10.10
2018-06-15T22:29:39.915Z,8.43
2018-06-15T22:32:08.176Z,22.93
2018-06-15T22:34:36.378Z,15.40
2018-06-15T22:37:04.637Z,18.57
2018-06-15T22:39:32.808Z,9.37
2018-06-15T22:42:01.086Z,15.03
2018-06-15T22:44:29.291Z,21.47
2018-06-15T22:46:57.485Z,19.70
2018-06-15T22:49:25.744Z,24.93
2018-06-15T22:51:53.946Z,10.20
2018-06-15T22:54:22.162Z,15.10
2018-06-15T22:56:50.453Z,9.63
2018-06-15T22:59:18.625Z,11.17
2018-06-15T23:01:46.910Z,15.00
2018-06-15T23:04:15.240Z,17.27
2018-06-15T23:06:43.461Z,34.27
2018-06-15T23:09:12.429Z,12.87
2018-06-15T23:11:41.236Z,31.80
2018-06-15T23:14:09.624Z,14.13
2018-06-15T23:16:37.818Z,15.17
2018-06-15T23:19:06.126Z,18.67
2018-06-15T23:21:34.426Z,13.77
2018-06-15T23:24:02.608Z,12.23
2018-06-15T23:26:30.843Z,18.20
2018-06-15T23:28:59.047Z,9.33
2018-06-15T23:31:27.266Z,21.03
2018-06-15T23:33:55.576Z,19.57
2018-06-15T23:36:23.831Z,10.00
2018-06-15T23:38:52.065Z,10.00
2018-06-15T23:41:20.249Z,8.70
2018-06-15T23:43:48.455Z,12.50
2018-06-15T23:46:16.677Z,12.43
2018-06-15T23:48:44.918Z,16.57
2018-06-15T23:51:13.176Z,13.07
2018-06-15T23:53:41.405Z,13.40
2018-06-15T23:56:09.635Z,9.83
2018-06-15T23:58:37.867Z,10.30
